Time;durP1;ratioP1;P1;durP2;ratioP2;P2;SDS_P1;SDS_P2;PMS_P1;PMS_P2;Temp;Humidity;BMP_temperature;BMP_pressure;BME280_temperature;BME280_humidity;BME280_pressure;Samples;Min_cycle;Max_cycle;Signal;HPM_P1;HPM_P2
2023/08/13 00:02:21;;;;;;;3.10;1.60;;;;;;;19.50;66.43;99573.39;106421;1272;22546;-58
2023/08/13 00:04:50;;;;;;;2.60;1.50;;;;;;;19.48;66.52;99573.38;106433;1272;99769;-57
2023/08/13 00:07:19;;;;;;;2.80;1.80;;;;;;;19.42;66.47;99570.63;106523;1272;22582;-57
2023/08/13 00:09:48;;;;;;;3.40;1.70;;;;;;;19.34;66.45;99572.37;106294;1272;99409;-57
2023/08/13 00:12:17;;;;;;;6.00;2.20;;;;;;;19.26;66.65;99577.84;106744;1272;22638;-58
2023/08/13 00:14:45;;;;;;;6.90;1.70;;;;;;;19.18;66.66;99574.46;106497;1272;22566;-58
2023/08/13 00:17:14;;;;;;;2.30;1.80;;;;;;;19.12;66.57;99576.05;106286;1272;99288;-58
2023/08/13 00:19:43;;;;;;;4.10;1.70;;;;;;;19.06;66.53;99571.66;106553;1272;22630;-58
2023/08/13 00:22:12;;;;;;;2.60;1.50;;;;;;;19.01;66.70;99563.05;106589;1272;99372;-58
2023/08/13 00:24:41;;;;;;;4.20;2.20;;;;;;;18.98;66.67;99564.71;106559;1272;24007;-57
2023/08/13 00:27:10;;;;;;;2.40;1.60;;;;;;;18.95;66.83;99558.23;106377;1273;26149;-58
2023/08/13 00:29:40;;;;;;;2.50;1.80;;;;;;;18.93;66.94;99563.58;106445;1265;99389;-58
2023/08/13 00:32:09;;;;;;;4.60;1.90;;;;;;;18.92;67.02;99562.38;106524;1269;25359;-58
2023/08/13 00:34:38;;;;;;;3.70;2.50;;;;;;;18.90;67.15;99564.32;106421;1272;99234;-58
2023/08/13 00:37:07;;;;;;;3.30;2.00;;;;;;;18.88;67.32;99568.35;106460;1272;22526;-58
2023/08/13 00:39:36;;;;;;;2.60;1.60;;;;;;;18.87;67.61;99568.50;106488;1271;99702;-57
2023/08/13 00:42:05;;;;;;;4.40;1.60;;;;;;;18.86;67.77;99564.36;106472;1272;25335;-58
2023/08/13 00:44:34;;;;;;;2.50;1.90;;;;;;;18.84;67.60;99563.66;106571;1272;25342;-58
2023/08/13 00:47:03;;;;;;;2.90;2.00;;;;;;;18.82;67.81;99563.27;106306;1274;99393;-58
2023/08/13 00:49:32;;;;;;;4.20;1.90;;;;;;;18.80;67.94;99559.92;106480;1274;24035;-57
2023/08/13 00:52:01;;;;;;;3.10;1.50;;;;;;;18.78;68.13;99556.02;106452;1272;99422;-58
2023/08/13 00:54:30;;;;;;;3.20;2.10;;;;;;;18.79;68.13;99556.12;106543;1271;25305;-58
2023/08/13 00:56:59;;;;;;;4.80;1.70;;;;;;;18.81;68.26;99562.30;106443;1272;25314;-58
2023/08/13 00:59:30;;;;;;;4.80;2.60;;;;;;;18.77;68.42;99557.66;106432;1272;99106;-58
2023/08/13 01:01:59;;;;;;;3.90;2.00;;;;;;;18.50;68.88;99557.46;106520;1271;25247;-59
2023/08/13 01:04:28;;;;;;;2.90;1.90;;;;;;;18.18;69.87;99555.99;106480;1258;100122;-58
2023/08/13 01:07:11;;;;;;;3.60;1.90;;;;;;;17.93;70.27;99555.02;106457;1272;22672;-58
2023/08/13 01:09:58;;;;;;;4.10;2.20;;;;;;;17.73;71.72;99553.06;106330;1271;99493;-58
2023/08/13 01:13:05;;;;;;;2.70;1.70;;;;;;;17.59;73.61;99552.02;106472;1268;22646;-58
2023/08/13 01:15:38;;;;;;;4.60;2.10;;;;;;;17.53;74.85;99550.11;106191;1280;101532;-58
2023/08/13 01:18:07;;;;;;;2.40;1.70;;;;;;;17.48;75.12;99544.33;106189;1279;22689;-58
2023/08/13 01:20:39;;;;;;;3.70;2.20;;;;;;;17.43;75.19;99538.88;106034;1280;24286;-58
2023/08/13 01:23:08;;;;;;;3.40;1.50;;;;;;;17.40;76.07;99537.59;105964;1279;99727;-58
2023/08/13 01:25:37;;;;;;;3.20;2.20;;;;;;;17.38;76.17;99537.54;106049;1275;24417;-58
2023/08/13 01:28:21;;;;;;;3.80;1.90;;;;;;;17.35;76.60;99533.56;106015;1280;99562;-57
2023/08/13 01:30:59;;;;;;;3.50;1.70;;;;;;;17.34;77.55;99532.60;106038;1279;22550;-58
2023/08/13 01:33:33;;;;;;;2.80;1.90;;;;;;;17.33;78.51;99530.73;106118;1279;22536;-58
2023/08/13 01:36:05;;;;;;;2.30;1.60;;;;;;;17.32;79.43;99525.21;106439;1280;22663;-58
2023/08/13 01:38:35;;;;;;;4.60;1.70;;;;;;;17.31;79.79;99518.77;106049;1280;23643;-57
2023/08/13 01:41:04;;;;;;;2.60;2.10;;;;;;;17.30;79.74;99515.63;106031;1279;99345;-57
2023/08/13 01:43:33;;;;;;;4.70;2.10;;;;;;;17.31;80.31;99516.47;106100;1280;22540;-58
2023/08/13 01:46:03;;;;;;;2.60;1.80;;;;;;;17.30;80.45;99514.63;106003;1272;99619;-57
2023/08/13 01:48:32;;;;;;;2.70;1.90;;;;;;;17.29;80.75;99509.45;106380;1272;25345;-58
2023/08/13 01:51:01;;;;;;;3.50;1.80;;;;;;;17.31;81.42;99512.80;106447;1274;25258;-58
2023/08/13 01:53:30;;;;;;;2.70;1.90;;;;;;;17.32;81.33;99509.91;106325;1272;99262;-57
2023/08/13 01:55:59;;;;;;;5.00;2.10;;;;;;;17.29;80.98;99506.98;106630;1272;22530;-58
2023/08/13 01:58:27;;;;;;;4.50;1.80;;;;;;;17.23;80.76;99504.91;106526;1272;99262;-58
2023/08/13 02:00:56;;;;;;;3.70;1.70;;;;;;;17.21;81.56;99504.01;106535;1272;22540;-57
2023/08/13 02:03:25;;;;;;;3.20;2.10;;;;;;;17.21;81.96;99505.94;106715;1272;24204;-57
2023/08/13 02:05:54;;;;;;;4.10;2.30;;;;;;;17.21;82.46;99506.64;106530;1271;99479;-57
2023/08/13 02:08:23;;;;;;;3.80;2.00;;;;;;;17.20;82.45;99506.37;106436;1272;23911;-57
2023/08/13 02:10:52;;;;;;;1.80;1.60;;;;;;;17.21;82.70;99505.42;106551;1272;99257;-57
2023/08/13 02:13:20;;;;;;;3.20;2.40;;;;;;;17.23;82.88;99506.31;106428;1272;22523;-57
2023/08/13 02:15:49;;;;;;;2.50;2.00;;;;;;;17.25;83.05;99503.38;106487;1270;99430;-58
2023/08/13 02:18:18;;;;;;;2.40;1.60;;;;;;;17.26;83.26;99503.17;106502;1272;22734;-57
2023/08/13 02:20:47;;;;;;;2.30;1.80;;;;;;;17.22;83.38;99510.25;106582;1268;25353;-57
2023/08/13 02:23:16;;;;;;;2.60;1.40;;;;;;;17.21;83.72;99513.14;106589;1271;99295;-58
2023/08/13 02:25:45;;;;;;;3.10;1.90;;;;;;;17.19;83.64;99512.77;106464;1272;24253;-57
2023/08/13 02:28:14;;;;;;;5.60;1.90;;;;;;;17.16;83.88;99512.49;106379;1272;99439;-57
2023/08/13 02:30:42;;;;;;;3.30;2.30;;;;;;;17.13;83.92;99511.30;106515;1272;22533;-58
2023/08/13 02:33:11;;;;;;;3.50;1.80;;;;;;;17.11;83.89;99507.09;106549;1272;27897;-57
2023/08/13 02:35:40;;;;;;;3.10;2.20;;;;;;;17.10;83.52;99508.58;106576;1272;99781;-57
2023/08/13 02:38:09;;;;;;;2.80;1.80;;;;;;;17.07;83.62;99504.94;106469;1272;22513;-57
2023/08/13 02:40:38;;;;;;;2.10;1.80;;;;;;;17.05;83.27;99506.30;106391;1271;99304;-58
2023/08/13 02:43:07;;;;;;;2.90;2.20;;;;;;;17.01;82.37;99504.74;106575;1272;22584;-56
2023/08/13 02:45:36;;;;;;;2.40;1.70;;;;;;;16.96;82.37;99501.23;106673;1272;99384;-58
2023/08/13 02:48:05;;;;;;;3.90;2.00;;;;;;;16.92;82.72;99504.02;106460;1272;25439;-57
2023/08/13 02:50:34;;;;;;;2.30;1.90;;;;;;;16.89;83.44;99506.73;106433;1272;22514;-57
2023/08/13 02:53:03;;;;;;;3.00;2.40;;;;;;;16.86;83.74;99507.48;106438;1274;99878;-56
2023/08/13 02:55:32;;;;;;;4.20;2.40;;;;;;;16.84;84.09;99508.34;106709;1272;25516;-57
2023/08/13 02:58:01;;;;;;;3.60;2.30;;;;;;;16.81;84.15;99513.13;106746;1273;99390;-56
2023/08/13 03:00:37;;;;;;;3.60;1.80;;;;;;;16.79;84.46;99516.80;106476;1273;25301;-56
2023/08/13 03:03:06;;;;;;;2.30;1.70;;;;;;;16.76;84.64;99511.00;106560;1272;25339;-57
2023/08/13 03:05:36;;;;;;;3.40;2.10;;;;;;;16.74;84.49;99507.98;106477;1272;99272;-57
2023/08/13 03:08:05;;;;;;;3.00;2.30;;;;;;;16.72;84.30;99509.86;106742;1272;23273;-56
2023/08/13 03:10:34;;;;;;;2.20;2.00;;;;;;;16.72;84.34;99506.90;106479;1272;99261;-57
2023/08/13 03:13:03;;;;;;;2.80;2.10;;;;;;;16.72;84.47;99503.73;106514;1270;24216;-58
2023/08/13 03:15:31;;;;;;;2.60;2.00;;;;;;;16.74;84.91;99508.12;106464;1272;22989;-57
2023/08/13 03:18:00;;;;;;;2.10;1.80;;;;;;;16.76;85.48;99504.34;106308;1270;22526;-56
2023/08/13 03:20:29;;;;;;;3.90;2.10;;;;;;;16.76;85.69;99505.88;106440;1267;24261;-57
2023/08/13 03:22:58;;;;;;;2.60;2.30;;;;;;;16.75;85.80;99511.20;106340;1272;99297;-56
2023/08/13 03:25:27;;;;;;;4.10;2.20;;;;;;;16.74;85.82;99511.45;106570;1268;23000;-56
2023/08/13 03:27:56;;;;;;;2.90;1.90;;;;;;;16.73;86.18;99513.49;106421;1272;99438;-57
2023/08/13 03:30:25;;;;;;;3.50;1.90;;;;;;;16.75;86.34;99511.96;106473;1274;22546;-57
2023/08/13 03:32:54;;;;;;;4.30;2.30;;;;;;;16.74;86.61;99515.16;106539;1271;25237;-57
2023/08/13 03:35:23;;;;;;;3.30;2.10;;;;;;;16.76;86.95;99519.08;106449;1272;99360;-57
2023/08/13 03:37:57;;;;;;;3.60;2.40;;;;;;;16.81;87.11;99518.95;106436;1272;22523;-56
2023/08/13 03:40:25;;;;;;;3.40;2.10;;;;;;;16.82;87.14;99522.91;106582;1272;99285;-57
2023/08/13 03:42:57;;;;;;;3.90;2.10;;;;;;;16.82;87.36;99522.75;106602;1272;22524;-56
2023/08/13 03:45:29;;;;;;;5.10;2.30;;;;;;;16.83;87.47;99520.91;106337;1272;23239;-56
2023/08/13 03:47:58;;;;;;;5.30;2.20;;;;;;;16.83;87.46;99523.66;106460;1272;99252;-56
2023/08/13 03:50:27;;;;;;;3.40;2.30;;;;;;;16.85;87.59;99523.73;106499;1272;22850;-57
2023/08/13 03:52:55;;;;;;;6.10;2.50;;;;;;;16.86;87.95;99524.02;106467;1272;99426;-57
2023/08/13 03:55:24;;;;;;;3.30;2.40;;;;;;;16.91;88.11;99529.06;106600;1272;22614;-56
2023/08/13 03:57:53;;;;;;;5.40;2.20;;;;;;;16.96;88.06;99529.33;106320;1274;99410;-56
2023/08/13 04:00:22;;;;;;;3.30;1.90;;;;;;;17.05;88.43;99527.11;106454;1272;22574;-56
2023/08/13 04:02:51;;;;;;;2.50;1.90;;;;;;;17.11;88.50;99529.95;106611;1272;24271;-57
2023/08/13 04:05:20;;;;;;;3.90;2.50;;;;;;;17.16;88.54;99531.11;106816;1273;99369;-57
2023/08/13 04:07:49;;;;;;;4.40;2.40;;;;;;;17.21;88.57;99530.77;106528;1272;22949;-57
2023/08/13 04:10:18;;;;;;;5.00;2.50;;;;;;;17.24;88.52;99531.59;106284;1272;99453;-57
2023/08/13 04:12:46;;;;;;;2.30;2.10;;;;;;;17.31;88.91;99530.75;106652;1266;25237;-57
2023/08/13 04:15:15;;;;;;;2.70;2.20;;;;;;;17.42;89.23;99534.41;106647;1272;24444;-57
2023/08/13 04:17:44;;;;;;;3.70;2.10;;;;;;;17.55;89.52;99536.52;106371;1272;99288;-56
2023/08/13 04:20:13;;;;;;;2.30;1.80;;;;;;;17.68;89.35;99536.55;106977;1272;22630;-57
2023/08/13 04:22:42;;;;;;;5.50;2.10;;;;;;;17.81;89.39;99539.30;106459;1272;100203;-56
2023/08/13 04:25:11;;;;;;;2.90;1.80;;;;;;;17.93;89.59;99544.13;106380;1271;25266;-57
2023/08/13 04:27:40;;;;;;;2.20;2.00;;;;;;;18.04;89.52;99543.19;106464;1272;100007;-57
2023/08/13 04:30:09;;;;;;;2.60;2.20;;;;;;;18.19;89.77;99541.34;106530;1272;25342;-57
2023/08/13 04:32:39;;;;;;;4.00;2.20;;;;;;;18.34;89.78;99540.98;106810;1272;25241;-57
2023/08/13 04:35:09;;;;;;;5.40;1.50;;;;;;;18.45;89.69;99543.52;106454;1272;99755;-57
2023/08/13 04:37:38;;;;;;;3.50;1.70;;;;;;;18.51;89.53;99541.42;106702;1272;22537;-57
2023/08/13 04:40:08;;;;;;;2.90;1.70;;;;;;;18.61;89.62;99543.99;106508;1272;99944;-57
2023/08/13 04:42:41;;;;;;;4.40;1.80;;;;;;;18.71;89.60;99547.41;106533;1272;25304;-56
2023/08/13 04:45:12;;;;;;;1.50;1.30;;;;;;;18.82;89.60;99546.68;106572;1272;25127;-56
2023/08/13 04:47:41;;;;;;;2.10;1.70;;;;;;;18.90;89.38;99545.95;106561;1273;99519;-57
2023/08/13 04:50:10;;;;;;;3.60;1.80;;;;;;;18.98;89.30;99544.41;106725;1272;22534;-57
2023/08/13 04:52:39;;;;;;;5.30;1.80;;;;;;;19.07;89.40;99547.10;106539;1272;99447;-57
2023/08/13 04:55:08;;;;;;;2.60;1.70;;;;;;;19.18;89.42;99547.71;106511;1272;22561;-57
2023/08/13 04:57:37;;;;;;;1.70;1.60;;;;;;;19.34;89.79;99547.71;106457;1273;99467;-56
2023/08/13 05:00:08;;;;;;;1.70;1.30;;;;;;;19.57;89.78;99551.92;106603;1272;23884;-56
2023/08/13 05:02:46;;;;;;;2.00;1.50;;;;;;;19.74;89.61;99552.39;106568;1272;25487;-58
2023/08/13 05:05:16;;;;;;;1.50;1.40;;;;;;;19.95;89.82;99554.94;106666;1272;99288;-57
2023/08/13 05:07:45;;;;;;;1.70;1.60;;;;;;;20.12;89.61;99557.86;106605;1272;25400;-56
2023/08/13 05:10:13;;;;;;;2.00;1.40;;;;;;;20.25;89.72;99556.67;106550;1272;99976;-56
2023/08/13 05:12:42;;;;;;;6.00;1.70;;;;;;;20.32;89.49;99557.25;106352;1272;25368;-58
2023/08/13 05:15:11;;;;;;;4.50;1.60;;;;;;;20.36;89.37;99563.13;106635;1274;24207;-57
2023/08/13 05:17:41;;;;;;;3.70;2.40;;;;;;;20.39;89.18;99566.18;106478;1272;99945;-57
2023/08/13 05:20:10;;;;;;;2.30;1.90;;;;;;;20.35;89.12;99565.09;106348;1270;25250;-57
2023/08/13 05:22:39;;;;;;;1.80;1.50;;;;;;;20.32;89.12;99566.57;106670;1256;99342;-57
2023/08/13 05:25:07;;;;;;;2.40;1.80;;;;;;;20.32;89.28;99565.25;106574;1272;23778;-57
2023/08/13 05:27:36;;;;;;;2.50;1.70;;;;;;;20.33;89.29;99566.92;106527;1272;99428;-57
2023/08/13 05:30:06;;;;;;;1.90;1.40;;;;;;;20.46;89.59;99563.83;106468;1272;25426;-56
2023/08/13 05:32:34;;;;;;;2.20;1.70;;;;;;;20.62;89.46;99560.42;106600;1272;25364;-57
2023/08/13 05:35:04;;;;;;;2.20;1.60;;;;;;;20.74;89.39;99562.09;108435;1272;99405;-56
2023/08/13 05:37:33;;;;;;;2.50;1.70;;;;;;;20.92;89.68;99562.79;106474;1272;24216;-56
2023/08/13 05:40:03;;;;;;;2.10;1.60;;;;;;;21.14;89.72;99561.26;106459;1272;99438;-57
2023/08/13 05:42:32;;;;;;;2.00;1.50;;;;;;;21.43;89.66;99559.79;106489;1274;24493;-58
2023/08/13 05:45:00;;;;;;;2.50;1.70;;;;;;;21.75;89.37;99563.58;106377;1272;22527;-56
2023/08/13 05:47:29;;;;;;;2.70;1.50;;;;;;;21.88;88.68;99569.27;106512;1260;99286;-56
2023/08/13 05:49:58;;;;;;;2.20;1.60;;;;;;;22.07;89.07;99570.05;106493;1272;22537;-58
2023/08/13 05:52:28;;;;;;;3.40;1.80;;;;;;;22.32;88.90;99574.92;106644;1272;99313;-56
2023/08/13 05:54:59;;;;;;;1.30;1.20;;;;;;;22.47;88.18;99576.09;106621;1272;23829;-57
2023/08/13 05:57:28;;;;;;;1.80;1.30;;;;;;;22.45;87.70;99581.23;106609;1271;22523;-56
2023/08/13 05:59:58;;;;;;;2.10;1.40;;;;;;;22.45;87.93;99582.46;106839;1272;99024;-57
2023/08/13 06:02:27;;;;;;;1.30;1.10;;;;;;;22.47;87.61;99584.39;106533;1272;25306;-57
2023/08/13 06:04:56;;;;;;;2.00;1.60;;;;;;;22.38;87.00;99583.53;106355;1272;262000;-57
2023/08/13 06:07:25;;;;;;;2.00;1.80;;;;;;;22.22;86.73;99586.77;106468;1266;22547;-57
2023/08/13 06:09:54;;;;;;;9.30;1.30;;;;;;;22.10;86.74;99589.20;106419;1272;99447;-57
2023/08/13 06:12:22;;;;;;;1.10;1.00;;;;;;;22.13;87.02;99589.37;106636;1272;22563;-56
2023/08/13 06:14:51;;;;;;;1.20;1.00;;;;;;;22.29;86.92;99591.36;106535;1271;23138;-55
2023/08/13 06:17:20;;;;;;;2.60;1.70;;;;;;;22.27;86.15;99595.46;106343;1272;99362;-56
2023/08/13 06:19:49;;;;;;;1.80;1.30;;;;;;;22.16;86.05;99598.67;106733;1274;25523;-56
2023/08/13 06:22:19;;;;;;;2.10;1.60;;;;;;;22.12;85.99;99602.92;106564;1272;99510;-59
2023/08/13 06:24:48;;;;;;;2.40;1.30;;;;;;;22.17;86.01;99602.70;106531;1272;22529;-60
2023/08/13 06:27:17;;;;;;;1.40;1.10;;;;;;;22.21;85.82;99604.91;106875;1272;22752;-57
2023/08/13 06:29:46;;;;;;;2.30;1.50;;;;;;;22.16;85.45;99603.97;106579;1272;101164;-58
2023/08/13 06:32:34;;;;;;;2.50;1.60;;;;;;;22.08;85.19;99610.88;106517;1272;22644;-57
2023/08/13 06:35:04;;;;;;;2.00;1.60;;;;;;;22.15;85.46;99612.40;106425;1272;99330;-57
2023/08/13 06:37:33;;;;;;;2.50;1.50;;;;;;;22.37;85.66;99612.71;106416;1272;22704;-57
2023/08/13 06:40:22;;;;;;;1.60;1.50;;;;;;;22.67;85.37;99614.19;106385;1272;98270;-57
2023/08/13 06:42:51;;;;;;;1.70;1.30;;;;;;;22.98;85.21;99613.03;106406;1272;24467;-57
2023/08/13 06:45:23;;;;;;;1.90;1.50;;;;;;;23.16;84.58;99615.15;106578;1272;25455;-56
2023/08/13 06:47:55;;;;;;;1.90;1.70;;;;;;;23.29;84.26;99609.93;106360;1265;99262;-57
2023/08/13 06:50:26;;;;;;;2.10;1.20;;;;;;;23.57;84.29;99611.70;106369;1274;24016;-56
2023/08/13 06:52:55;;;;;;;1.70;1.20;;;;;;;23.73;83.78;99610.38;106531;1265;99350;-57
2023/08/13 06:55:25;;;;;;;1.10;0.80;;;;;;;23.82;83.95;99609.80;106504;1275;23611;-58
2023/08/13 06:57:54;;;;;;;1.80;1.20;;;;;;;23.87;83.47;99611.53;106614;1272;99477;-57
2023/08/13 07:00:25;;;;;;;2.00;1.50;;;;;;;23.98;83.36;99611.51;106612;1272;22769;-56
2023/08/13 07:03:08;;;;;;;3.70;1.40;;;;;;;24.06;82.94;99613.13;106490;1272;22713;-54
2023/08/13 07:05:39;;;;;;;1.30;1.20;;;;;;;24.11;82.37;99611.08;106901;1272;99811;-56
2023/08/13 07:08:11;;;;;;;1.30;1.00;;;;;;;24.22;82.11;99609.27;106446;1272;25367;-55
2023/08/13 07:10:42;;;;;;;1.00;0.90;;;;;;;24.34;81.68;99605.77;106527;1272;99253;-57
2023/08/13 07:13:16;;;;;;;3.40;1.00;;;;;;;24.63;81.45;99607.26;106570;1271;25257;-56
2023/08/13 07:15:45;;;;;;;0.90;0.90;;;;;;;24.96;81.05;99616.55;106540;1272;100486;-58
2023/08/13 07:18:15;;;;;;;0.80;0.80;;;;;;;25.42;80.52;99619.88;106453;1272;25342;-56
2023/08/13 07:20:44;;;;;;;2.30;1.10;;;;;;;25.75;80.00;99613.81;110095;1272;23475;-56
2023/08/13 07:23:14;;;;;;;0.90;0.90;;;;;;;26.18;80.35;99614.33;110028;1272;100326;-57
2023/08/13 07:25:46;;;;;;;4.10;1.60;;;;;;;26.65;78.86;99614.70;110219;1272;22255;-56
2023/08/13 07:28:15;;;;;;;1.50;0.80;;;;;;;27.20;78.61;99615.38;108570;1272;99902;-56
2023/08/13 07:30:44;;;;;;;1.00;0.90;;;;;;;28.09;78.37;99618.06;107141;1272;25486;-56
2023/08/13 07:33:13;;;;;;;1.10;1.00;;;;;;;28.16;76.33;99615.39;108030;1272;22701;-59
2023/08/13 07:35:43;;;;;;;0.70;0.70;;;;;;;27.80;75.24;99626.17;106578;1272;99276;-58
2023/08/13 07:38:13;;;;;;;0.70;0.60;;;;;;;27.39;74.74;99629.29;106710;1272;22688;-58
2023/08/13 07:40:43;;;;;;;2.10;1.20;;;;;;;27.14;74.50;99629.84;106392;1275;99283;-55
2023/08/13 07:43:12;;;;;;;1.00;0.80;;;;;;;26.93;74.11;99639.39;106701;1272;25394;-57
2023/08/13 07:45:41;;;;;;;1.00;0.90;;;;;;;26.82;73.36;99638.77;106751;1272;99499;-57
2023/08/13 07:48:11;;;;;;;2.20;0.80;;;;;;;27.08;73.82;99639.45;106502;1272;22650;-58
2023/08/13 07:50:40;;;;;;;1.10;0.80;;;;;;;27.51;72.42;99634.73;106442;1272;25296;-57
2023/08/13 07:53:09;;;;;;;1.60;1.00;;;;;;;27.31;71.56;99635.48;106457;1272;99272;-56
2023/08/13 07:55:39;;;;;;;2.00;1.40;;;;;;;27.23;71.08;99643.39;106622;1272;25429;-56
2023/08/13 07:58:08;;;;;;;1.40;1.00;;;;;;;27.38;72.12;99642.66;106484;1272;99449;-57
2023/08/13 08:00:37;;;;;;;0.90;0.60;;;;;;;28.78;71.27;99639.91;106434;1272;22769;-57
2023/08/13 08:03:09;;;;;;;1.60;1.00;;;;;;;29.22;69.21;99645.11;106622;1272;22530;-57
2023/08/13 08:05:38;;;;;;;1.70;0.90;;;;;;;29.05;68.21;99644.63;106454;1272;99740;-56
2023/08/13 08:08:08;;;;;;;2.60;1.00;;;;;;;28.89;68.03;99646.29;106520;1272;22528;-56
2023/08/13 08:10:37;;;;;;;1.40;1.30;;;;;;;28.43;67.11;99647.98;106470;1272;100402;-57
2023/08/13 08:13:06;;;;;;;1.50;0.80;;;;;;;29.91;68.84;99648.60;106541;1272;24289;-57
2023/08/13 08:15:35;;;;;;;2.00;1.10;;;;;;;30.16;65.67;99656.58;106514;1272;23945;-58
2023/08/13 08:18:05;;;;;;;1.10;0.90;;;;;;;29.49;64.65;99659.20;106670;1279;25380;-58
2023/08/13 08:20:34;;;;;;;1.60;0.80;;;;;;;28.72;64.39;99663.52;106471;1272;22526;-57
2023/08/13 08:23:06;;;;;;;2.70;1.10;;;;;;;28.14;64.26;99667.19;106464;1272;99247;-57
2023/08/13 08:25:36;;;;;;;1.50;0.70;;;;;;;27.89;63.88;99669.88;106674;1272;22524;-57
2023/08/13 08:28:05;;;;;;;1.50;1.00;;;;;;;27.72;63.48;99672.90;106385;1272;99425;-57
2023/08/13 08:30:34;;;;;;;1.90;1.10;;;;;;;27.29;62.75;99676.89;106429;1272;22530;-56
2023/08/13 08:33:03;;;;;;;1.30;1.00;;;;;;;26.78;62.49;99676.13;106393;1273;23324;-57
2023/08/13 08:35:33;;;;;;;1.30;1.10;;;;;;;26.28;62.11;99677.73;106483;1272;99274;-57
2023/08/13 08:38:05;;;;;;;2.20;1.30;;;;;;;25.80;62.05;99682.16;106495;1274;22533;-58
2023/08/13 08:40:34;;;;;;;1.10;1.00;;;;;;;25.38;62.10;99680.72;106377;1272;99289;-57
2023/08/13 08:43:04;;;;;;;1.50;1.10;;;;;;;25.15;62.17;99678.20;106751;1272;26132;-56
2023/08/13 08:45:35;;;;;;;2.20;1.40;;;;;;;24.88;61.93;99683.81;106517;1274;25220;-56
2023/08/13 08:48:06;;;;;;;1.40;1.30;;;;;;;24.69;62.37;99685.70;106546;1272;22535;-56
2023/08/13 08:50:38;;;;;;;1.80;1.60;;;;;;;24.81;62.47;99686.91;106429;1273;23653;-57
2023/08/13 08:53:08;;;;;;;1.20;1.10;;;;;;;24.73;62.42;99691.40;106478;1272;99347;-55
2023/08/13 08:55:38;;;;;;;1.10;1.00;;;;;;;24.67;62.62;99686.05;106656;1268;22546;-57
2023/08/13 08:58:07;;;;;;;2.60;1.40;;;;;;;24.57;62.54;99689.60;106360;1272;99694;-56
2023/08/13 09:00:36;;;;;;;1.20;0.90;;;;;;;24.63;62.65;99686.85;106538;1272;22569;-55
2023/08/13 09:03:05;;;;;;;1.20;0.90;;;;;;;25.02;63.17;99691.23;106626;1270;23412;-56
2023/08/13 09:05:35;;;;;;;1.30;0.80;;;;;;;26.08;64.34;99690.40;106342;1272;99317;-57
2023/08/13 09:08:12;;;;;;;1.60;0.70;;;;;;;28.45;65.04;99681.16;106341;1272;22632;-57
2023/08/13 09:10:44;;;;;;;1.60;1.00;;;;;;;31.72;65.06;99680.31;106479;1272;99240;-57
2023/08/13 09:13:12;;;;;;;1.60;0.80;;;;;;;32.93;61.59;99681.63;106417;1272;25476;-57
2023/08/13 09:15:47;;;;;;;0.80;0.70;;;;;;;32.13;60.01;99690.40;106284;1272;99847;-58
2023/08/13 09:18:16;;;;;;;0.70;0.60;;;;;;;31.49;59.40;99692.36;107907;1272;25290;-58
2023/08/13 09:20:48;;;;;;;1.40;0.80;;;;;;;31.09;59.51;99693.13;107005;1272;22639;-57
2023/08/13 09:23:24;;;;;;;2.00;0.80;;;;;;;31.11;58.47;99688.20;106543;1273;99788;-58
2023/08/13 09:25:54;;;;;;;2.70;0.70;;;;;;;31.06;58.58;99691.17;106291;1274;22551;-57
2023/08/13 09:28:23;;;;;;;1.60;0.80;;;;;;;32.05;57.32;99682.46;107653;1271;99463;-58
2023/08/13 09:30:51;;;;;;;1.10;0.80;;;;;;;31.78;56.87;99691.80;106500;1277;25241;-58
2023/08/13 09:33:20;;;;;;;1.70;0.70;;;;;;;32.04;56.43;99685.79;106342;1272;24213;-57
2023/08/13 09:35:49;;;;;;;1.30;0.90;;;;;;;33.72;57.69;99684.11;106233;1272;99299;-58
2023/08/13 09:38:17;;;;;;;0.90;0.80;;;;;;;36.92;56.83;99683.21;106749;1272;25295;-58
2023/08/13 09:40:48;;;;;;;0.90;0.70;;;;;;;37.14;53.54;99681.88;106724;1272;99307;-59
2023/08/13 09:43:24;;;;;;;1.10;0.80;;;;;;;37.64;53.09;99681.98;106480;1275;22543;-58
2023/08/13 09:45:56;;;;;;;1.00;0.50;;;;;;;37.09;50.19;99688.50;106256;1272;99416;-58
2023/08/13 09:48:26;;;;;;;0.60;0.60;;;;;;;35.75;49.61;99694.08;106516;1265;22607;-58
2023/08/13 09:50:57;;;;;;;1.10;0.90;;;;;;;36.05;50.80;99687.46;106344;1275;25359;-58
2023/08/13 09:53:46;;;;;;;0.90;0.70;;;;;;;39.48;50.63;99687.70;106357;1272;99400;-58
2023/08/13 09:56:19;;;;;;;0.70;0.60;;;;;;;42.11;47.83;99686.80;106683;1272;24209;-58
2023/08/13 09:58:49;;;;;;;1.00;0.80;;;;;;;44.21;46.46;99683.32;106471;1274;99303;-58
2023/08/13 10:01:19;;;;;;;0.50;0.40;;;;;;;44.43;42.83;99688.60;106340;1273;22524;-59
2023/08/13 10:03:49;;;;;;;0.60;0.50;;;;;;;42.37;40.83;99690.07;106305;1272;99480;-59
2023/08/13 10:06:20;;;;;;;0.60;0.50;;;;;;;39.92;39.14;99694.02;106385;1275;22525;-59
2023/08/13 10:08:50;;;;;;;0.90;0.50;;;;;;;38.11;38.51;99692.56;106611;1269;25271;-59
2023/08/13 10:11:22;;;;;;;0.60;0.60;;;;;;;37.03;37.85;99696.70;106569;1272;99230;-58
2023/08/13 10:13:51;;;;;;;0.50;0.40;;;;;;;38.18;38.67;99702.10;106481;1272;25007;-58
2023/08/13 10:16:21;;;;;;;0.60;0.40;;;;;;;41.19;37.53;99701.46;106342;1272;99425;-59
2023/08/13 10:18:50;;;;;;;1.10;0.90;;;;;;;42.12;36.01;99697.19;106774;1266;22657;-58
2023/08/13 10:21:35;;;;;;;2.40;0.80;;;;;;;41.14;35.01;99698.41;106583;1273;23061;-59
2023/08/13 10:24:11;;;;;;;0.60;0.60;;;;;;;41.97;35.00;99705.03;107376;1272;22639;-59
2023/08/13 10:26:43;;;;;;;1.40;0.80;;;;;;;44.41;34.07;99712.11;106630;1272;22750;-59
2023/08/13 10:29:18;;;;;;;0.60;0.50;;;;;;;44.87;32.14;99711.91;106513;1275;100017;-59
2023/08/13 10:31:55;;;;;;;0.80;0.80;;;;;;;45.91;31.14;99708.41;106893;1276;22529;-58
2023/08/13 10:34:46;;;;;;;1.20;1.10;;;;;;;46.81;29.31;99704.34;106497;1274;99446;-58
2023/08/13 10:37:17;;;;;;;1.60;1.50;;;;;;;48.43;28.96;99708.16;106532;1275;22620;-59
2023/08/13 10:39:53;;;;;;;2.60;2.50;;;;;;;49.98;27.94;99703.59;106504;1272;99509;-57
2023/08/13 10:42:33;;;;;;;3.00;2.90;;;;;;;50.80;26.49;99708.88;106562;1273;24199;-57
2023/08/13 10:45:05;;;;;;;2.50;2.40;;;;;;;49.96;24.79;99708.90;106612;1272;22543;-59
2023/08/13 10:47:51;;;;;;;2.00;1.90;;;;;;;47.21;24.61;99708.63;106316;1274;99838;-59
2023/08/13 10:50:41;;;;;;;1.70;1.60;;;;;;;46.92;24.27;99709.82;106394;1273;24857;-61
2023/08/13 10:53:22;;;;;;;1.90;1.80;;;;;;;46.43;24.24;99710.95;106365;1273;99353;-58
2023/08/13 10:55:54;;;;;;;1.60;1.30;;;;;;;46.99;23.78;99714.01;106593;1272;22542;-58
2023/08/13 10:58:25;;;;;;;1.30;1.20;;;;;;;45.64;23.59;99721.64;106331;1274;99530;-58
2023/08/13 11:01:00;;;;;;;2.10;0.80;;;;;;;44.01;23.36;99728.09;106591;1272;24231;-58
2023/08/13 11:03:33;;;;;;;1.60;0.90;;;;;;;41.98;23.66;99729.39;106326;1276;23881;-59
2023/08/13 11:06:03;;;;;;;0.80;0.60;;;;;;;40.44;23.85;99731.14;106629;1272;98748;-59
2023/08/13 11:08:32;;;;;;;0.40;0.40;;;;;;;39.55;24.22;99730.46;106377;1274;24266;-56
2023/08/13 11:11:05;;;;;;;0.70;0.50;;;;;;;41.06;25.05;99731.58;106202;1275;99289;-60
2023/08/13 11:13:37;;;;;;;0.40;0.40;;;;;;;44.09;25.09;99730.81;106254;1272;22613;-58
2023/08/13 11:16:06;;;;;;;0.50;0.50;;;;;;;46.93;24.87;99727.09;106325;1269;99418;-55
2023/08/13 11:18:34;;;;;;;0.70;0.70;;;;;;;47.03;24.31;99729.85;106431;1275;22546;-58
2023/08/13 11:21:05;;;;;;;1.00;0.90;;;;;;;48.55;24.57;99733.23;106586;1272;23079;-56
2023/08/13 11:23:34;;;;;;;1.40;1.30;;;;;;;50.01;23.90;99739.96;106359;1274;99555;-57
2023/08/13 11:26:05;;;;;;;2.00;1.90;;;;;;;50.47;22.92;99737.35;106575;1272;24244;-58
2023/08/13 11:28:34;;;;;;;1.70;1.60;;;;;;;49.67;21.99;99737.65;106259;1276;99295;-57
2023/08/13 11:31:05;;;;;;;1.50;1.40;;;;;;;46.92;21.29;99731.04;106403;1274;25243;-60
2023/08/13 11:33:37;;;;;;;1.40;1.30;;;;;;;45.81;21.75;99735.83;106396;1272;22551;-62
2023/08/13 11:36:12;;;;;;;1.00;0.90;;;;;;;44.84;21.49;99737.08;106427;1273;25284;-60
2023/08/13 11:38:41;;;;;;;1.10;1.00;;;;;;;44.92;22.07;99736.09;106527;1272;22622;-61
2023/08/13 11:41:13;;;;;;;0.70;0.70;;;;;;;45.68;21.91;99734.23;106658;1273;99281;-61